Terminal Aerodrome Forecast
Issued by NWS Quad Cities IA IL

Home | Current Version | Previous Version | Text Only | Print | Product List | Glossary On
Versions: 1 2 3 4 5 6 7 8 9 10 11 12 13 14 15 16 17 18 19
000
FTUS43 KDVN 290800 AAA
TAFDBQ
TAF AMD
KDBQ 290809Z 2908/3006 17007KT 5SM BR VCSH FEW003 BKN050
      TEMPO 2908/2912 2SM BR BKN003
     FM291900 17008KT P6SM VCTS FEW100CB BKN200 PROB30 2921/3003 2SM
      TSRA BKN030CB OVC050=

USA.gov is the U.S. government's official web portal to all federal, state and local government web resources and services.